createdAt,value
2023-02-03T00:00:08.413Z,-9.20
2023-02-03T00:02:36.565Z,-9.20
2023-02-03T00:05:05.618Z,-9.20
2023-02-03T00:07:34.929Z,-9.20
2023-02-03T00:10:04.051Z,-9.20
2023-02-03T00:12:32.612Z,-9.20
2023-02-03T00:15:00.821Z,-9.20
2023-02-03T00:17:30.357Z,-9.20
2023-02-03T00:19:58.655Z,-9.30
2023-02-03T00:22:26.853Z,-9.30
2023-02-03T00:24:55.061Z,-9.30
2023-02-03T00:27:23.372Z,-9.30
2023-02-03T00:29:51.566Z,-9.30
2023-02-03T00:32:19.789Z,-9.40
2023-02-03T00:34:49.914Z,-9.40
2023-02-03T00:37:18.085Z,-9.40
2023-02-03T00:39:46.230Z,-9.40
2023-02-03T00:42:14.945Z,-9.40
2023-02-03T00:44:43.207Z,-9.30
2023-02-03T00:47:11.544Z,-9.30
2023-02-03T00:49:40.884Z,-9.30
2023-02-03T00:52:10.409Z,-9.40
2023-02-03T00:54:38.508Z,-9.40
2023-02-03T00:57:06.958Z,-9.40
2023-02-03T00:59:35.248Z,-9.40
2023-02-03T01:02:03.411Z,-9.40
2023-02-03T01:04:32.182Z,-9.40
2023-02-03T01:07:00.307Z,-9.40
2023-02-03T01:09:29.824Z,-9.40
2023-02-03T01:11:58.565Z,-9.30
2023-02-03T01:14:26.796Z,-9.40
2023-02-03T01:16:55.270Z,-9.40
2023-02-03T01:19:24.157Z,-9.40
2023-02-03T01:21:52.545Z,-9.40
2023-02-03T01:24:20.813Z,-9.40
2023-02-03T01:26:50.847Z,-9.50
2023-02-03T01:29:19.026Z,-9.50
2023-02-03T01:31:47.297Z,-9.50
2023-02-03T01:34:18.737Z,-9.50
2023-02-03T01:36:47.459Z,-9.50
2023-02-03T01:39:16.293Z,-9.60
2023-02-03T01:41:45.027Z,-9.50
2023-02-03T01:44:44.546Z,-9.50
2023-02-03T01:47:20.264Z,-9.50
2023-02-03T01:49:53.792Z,-9.60
2023-02-03T01:52:22.010Z,-9.60
2023-02-03T01:54:53.317Z,-9.60
2023-02-03T01:57:26.141Z,-9.60
2023-02-03T02:00:00.057Z,-9.60
2023-02-03T02:02:28.917Z,-9.70
2023-02-03T02:05:06.012Z,-9.70
2023-02-03T02:07:36.401Z,-9.70
2023-02-03T02:10:05.669Z,-9.70
2023-02-03T02:12:33.784Z,-9.70
2023-02-03T02:15:04.162Z,-9.70
2023-02-03T02:17:47.481Z,-9.70
2023-02-03T02:20:34.689Z,-9.80
2023-02-03T02:23:27.003Z,-9.80
2023-02-03T02:26:18.408Z,-9.80
2023-02-03T02:29:04.909Z,-9.80
2023-02-03T02:32:07.276Z,-9.80
2023-02-03T02:34:48.137Z,-9.80
2023-02-03T02:37:26.333Z,-9.80
2023-02-03T02:40:00.746Z,-9.80
2023-02-03T02:42:35.629Z,-9.80
2023-02-03T02:45:10.989Z,-9.80
2023-02-03T02:47:40.955Z,-9.80
2023-02-03T02:50:13.969Z,-9.80
2023-02-03T02:52:46.785Z,-9.80
2023-02-03T02:55:18.339Z,-9.80
2023-02-03T02:57:48.514Z,-9.80
2023-02-03T03:00:17.007Z,-9.80
2023-02-03T03:02:46.644Z,-9.80
2023-02-03T03:05:15.841Z,-9.80
2023-02-03T03:07:48.249Z,-9.80
2023-02-03T03:10:22.197Z,-9.80
2023-02-03T03:12:54.187Z,-9.80
2023-02-03T03:15:26.308Z,-9.80
2023-02-03T03:18:00.006Z,-9.80
2023-02-03T03:20:29.345Z,-9.90
2023-02-03T03:23:00.811Z,-9.90
2023-02-03T03:25:35.864Z,-9.90
2023-02-03T03:28:09.901Z,-9.90
2023-02-03T03:30:40.530Z,-9.90
2023-02-03T03:33:11.114Z,-9.90
2023-02-03T03:35:44.319Z,-9.90
2023-02-03T03:38:19.189Z,-9.80
2023-02-03T03:40:52.783Z,-9.80
2023-02-03T03:43:23.296Z,-9.80
2023-02-03T03:45:58.791Z,-9.80
2023-02-03T03:48:31.213Z,-9.80
2023-02-03T03:51:04.398Z,-9.80
2023-02-03T03:53:35.127Z,-9.70
2023-02-03T03:56:07.822Z,-9.70
2023-02-03T03:58:39.642Z,-9.70
2023-02-03T04:01:09.696Z,-9.70
2023-02-03T04:03:42.298Z,-9.70
2023-02-03T04:06:11.186Z,-9.80
2023-02-03T04:08:39.922Z,-9.70
2023-02-03T04:11:08.982Z,-9.70
2023-02-03T04:13:37.541Z,-9.70
2023-02-03T04:16:06.504Z,-9.70
2023-02-03T04:18:34.670Z,-9.70
2023-02-03T04:21:04.571Z,-9.70
2023-02-03T04:23:33.159Z,-9.70
2023-02-03T04:26:02.653Z,-9.60
2023-02-03T04:28:31.110Z,-9.60
2023-02-03T04:31:02.138Z,-9.60
2023-02-03T04:33:30.365Z,-9.60
2023-02-03T04:35:58.991Z,-9.60
2023-02-03T04:38:28.664Z,-9.60
2023-02-03T04:40:56.772Z,-9.60
2023-02-03T04:43:25.260Z,-9.60
2023-02-03T04:45:53.566Z,-9.60
2023-02-03T04:48:22.132Z,-9.50
2023-02-03T04:50:50.705Z,-9.50
2023-02-03T04:53:18.825Z,-9.50
2023-02-03T04:55:50.004Z,-9.60
2023-02-03T04:58:18.602Z,-9.60
2023-02-03T05:00:47.063Z,-9.60
2023-02-03T05:03:16.065Z,-9.60
2023-02-03T05:05:44.325Z,-9.60
2023-02-03T05:08:12.616Z,-9.50
2023-02-03T05:10:41.288Z,-9.50
2023-02-03T05:13:11.035Z,-9.50
2023-02-03T05:15:39.319Z,-9.50
2023-02-03T05:18:08.295Z,-9.50
2023-02-03T05:20:36.925Z,-9.50
2023-02-03T05:23:05.211Z,-9.40
2023-02-03T05:25:33.824Z,-9.40
2023-02-03T05:28:02.196Z,-9.40
2023-02-03T05:30:31.826Z,-9.40
2023-02-03T05:33:00.095Z,-9.40
2023-02-03T05:35:28.808Z,-9.40
2023-02-03T05:37:57.067Z,-9.40
2023-02-03T05:40:43.069Z,-9.40
2023-02-03T05:43:11.589Z,-9.40
2023-02-03T05:45:41.129Z,-9.40
2023-02-03T05:48:09.760Z,-9.40
2023-02-03T05:50:38.931Z,-9.40
2023-02-03T05:53:08.095Z,-9.40
2023-02-03T05:55:37.289Z,-9.40
2023-02-03T05:58:05.635Z,-9.40
2023-02-03T06:00:33.914Z,-9.40
2023-02-03T06:03:05.211Z,-9.40
2023-02-03T06:05:37.986Z,-9.40
2023-02-03T06:08:06.527Z,-9.40
2023-02-03T06:10:34.766Z,-9.40
2023-02-03T06:13:11.259Z,-9.40
2023-02-03T06:15:40.241Z,-9.40
2023-02-03T06:18:10.202Z,-9.30
2023-02-03T06:20:38.929Z,-9.30
2023-02-03T06:23:07.554Z,-9.30
2023-02-03T06:25:35.680Z,-9.40
2023-02-03T06:28:04.018Z,-9.40
2023-02-03T06:30:32.676Z,-9.40
2023-02-03T06:33:00.912Z,-9.40
2023-02-03T06:35:30.599Z,-9.40
2023-02-03T06:37:59.119Z,-9.40
2023-02-03T06:40:27.782Z,-9.30
2023-02-03T06:42:56.307Z,-9.30
2023-02-03T06:45:25.175Z,-9.20
2023-02-03T06:47:53.388Z,-9.10
2023-02-03T06:50:21.622Z,-9.20
2023-02-03T06:52:52.261Z,-9.10
2023-02-03T06:55:20.975Z,-9.10
2023-02-03T06:57:50.744Z,-9.10
2023-02-03T07:00:20.024Z,-9.10
2023-02-03T07:02:54.351Z,-9.00
2023-02-03T07:05:23.295Z,-9.10
2023-02-03T07:07:53.164Z,-9.10
2023-02-03T07:10:21.488Z,-9.10
2023-02-03T07:12:50.845Z,-9.10
2023-02-03T07:15:19.526Z,-9.00
2023-02-03T07:17:55.138Z,-9.00
2023-02-03T07:20:25.279Z,-9.00
2023-02-03T07:22:56.427Z,-9.00
2023-02-03T07:25:25.669Z,-8.90
2023-02-03T07:27:54.391Z,-8.80
2023-02-03T07:30:22.760Z,-8.80
2023-02-03T07:32:52.122Z,-8.60
2023-02-03T07:35:21.356Z,-8.50
2023-02-03T07:37:49.764Z,-8.50
2023-02-03T07:40:19.699Z,-8.40
2023-02-03T07:42:49.894Z,-8.30
2023-02-03T07:45:19.630Z,-8.20
2023-02-03T07:47:48.161Z,-8.20
2023-02-03T07:50:16.207Z,-8.10
2023-02-03T07:52:44.579Z,-8.00
2023-02-03T07:55:12.736Z,-7.90
2023-02-03T07:57:43.761Z,-7.80
2023-02-03T08:00:15.191Z,-7.70
2023-02-03T08:02:43.906Z,-7.70
2023-02-03T08:05:13.013Z,-7.50
2023-02-03T08:07:41.530Z,-7.40
2023-02-03T08:10:10.689Z,-7.30
2023-02-03T08:12:39.154Z,-7.30
2023-02-03T08:15:10.634Z,-7.20
2023-02-03T08:17:40.204Z,-7.10
2023-02-03T08:20:09.432Z,-7.10
2023-02-03T08:22:37.935Z,-7.10
2023-02-03T08:25:07.445Z,-7.00
2023-02-03T08:27:36.050Z,-6.90
2023-02-03T08:30:04.893Z,-6.90
2023-02-03T08:32:35.328Z,-6.80
2023-02-03T08:35:04.278Z,-6.80
2023-02-03T08:37:32.791Z,-6.80
2023-02-03T08:40:01.204Z,-6.80
2023-02-03T08:42:29.412Z,-6.70
2023-02-03T08:44:58.083Z,-6.70
2023-02-03T08:47:27.414Z,-6.70
2023-02-03T08:49:56.919Z,-6.70
2023-02-03T08:52:25.594Z,-6.70
2023-02-03T08:54:54.056Z,-6.60
2023-02-03T08:57:22.202Z,-6.60
2023-02-03T08:59:51.632Z,-6.50
2023-02-03T09:02:21.104Z,-6.50
2023-02-03T09:04:50.389Z,-6.40
2023-02-03T09:07:20.084Z,-6.30
2023-02-03T09:09:48.350Z,-6.20
2023-02-03T09:12:17.389Z,-6.20
2023-02-03T09:14:45.629Z,-6.00
2023-02-03T09:17:14.000Z,-5.90
2023-02-03T09:19:42.147Z,-5.80
2023-02-03T09:22:10.362Z,-5.40
2023-02-03T09:24:40.522Z,-4.70
2023-02-03T09:27:08.738Z,-3.80
2023-02-03T09:29:37.388Z,-2.80
2023-02-03T09:32:08.914Z,-1.70
2023-02-03T09:34:37.238Z,-0.50
2023-02-03T09:37:05.958Z,1.00
2023-02-03T09:39:34.272Z,2.20
2023-02-03T09:42:25.773Z,3.30
2023-02-03T09:45:03.660Z,4.30
2023-02-03T09:47:38.028Z,4.90
2023-02-03T09:50:08.309Z,5.50
2023-02-03T09:52:40.496Z,5.60
2023-02-03T09:55:21.980Z,5.90
2023-02-03T09:57:59.703Z,6.20
2023-02-03T10:00:30.521Z,6.50
2023-02-03T10:03:03.745Z,6.80
2023-02-03T10:05:44.467Z,7.30
2023-02-03T10:08:23.515Z,7.80
2023-02-03T10:11:10.610Z,7.80
2023-02-03T10:13:49.363Z,8.20
2023-02-03T10:16:49.834Z,8.10
2023-02-03T10:19:23.215Z,8.40
2023-02-03T10:21:55.442Z,8.30
2023-02-03T10:24:28.383Z,8.10
2023-02-03T10:26:56.848Z,7.60
2023-02-03T10:29:32.975Z,7.40
2023-02-03T10:32:01.544Z,7.10
2023-02-03T10:34:30.278Z,6.40
2023-02-03T10:37:01.392Z,5.60
2023-02-03T10:39:34.057Z,4.70
2023-02-03T10:42:04.004Z,3.40
2023-02-03T10:44:38.923Z,3.10
2023-02-03T10:47:35.118Z,3.50
2023-02-03T10:50:07.839Z,5.00
2023-02-03T10:52:37.717Z,5.80
2023-02-03T10:55:08.916Z,6.10
2023-02-03T10:57:39.370Z,5.90
2023-02-03T11:00:23.702Z,5.30
2023-02-03T11:02:58.236Z,3.60
2023-02-03T11:05:26.781Z,2.60
2023-02-03T11:07:55.740Z,1.80
2023-02-03T11:10:30.576Z,1.20
2023-02-03T11:13:23.269Z,0.80
2023-02-03T11:16:01.716Z,0.60
2023-02-03T11:18:47.215Z,0.50
2023-02-03T11:21:19.564Z,0.40
2023-02-03T11:23:52.978Z,0.20
2023-02-03T11:26:23.973Z,0.20
2023-02-03T11:28:55.479Z,0.20
2023-02-03T11:31:27.623Z,0.20
2023-02-03T11:33:59.161Z,0.10
2023-02-03T11:36:29.827Z,0.10
2023-02-03T11:39:21.808Z,0.00
2023-02-03T11:41:50.653Z,-0.10
2023-02-03T11:44:21.964Z,-0.10
2023-02-03T11:46:55.590Z,-0.10
2023-02-03T11:49:50.286Z,-0.20
2023-02-03T11:52:39.227Z,-0.30
2023-02-03T11:55:17.646Z,-0.30
2023-02-03T11:57:50.803Z,-0.20
2023-02-03T12:00:31.306Z,-0.20
2023-02-03T12:03:27.408Z,-0.20
2023-02-03T12:06:20.200Z,-0.10
2023-02-03T12:09:03.368Z,-0.10
2023-02-03T12:11:44.610Z,0.00
2023-02-03T12:14:27.928Z,0.00
2023-02-03T12:17:23.900Z,0.10
2023-02-03T12:20:18.161Z,0.20
2023-02-03T12:22:54.258Z,0.30
2023-02-03T12:25:34.145Z,0.30
2023-02-03T12:28:27.397Z,0.40
2023-02-03T12:31:05.297Z,0.40
2023-02-03T12:33:40.709Z,0.40
2023-02-03T12:36:14.727Z,0.30
2023-02-03T12:38:47.070Z,0.30
2023-02-03T12:41:19.609Z,0.30
2023-02-03T12:43:50.821Z,0.40
2023-02-03T12:46:24.596Z,0.40
2023-02-03T12:48:57.649Z,0.40
2023-02-03T12:51:34.548Z,0.40
2023-02-03T12:54:10.186Z,0.50
2023-02-03T12:56:42.035Z,0.50
2023-02-03T12:59:16.118Z,0.50
2023-02-03T13:01:51.089Z,0.50
2023-02-03T13:04:27.414Z,0.50
2023-02-03T13:07:05.416Z,0.50
2023-02-03T13:09:39.721Z,0.50
2023-02-03T13:12:12.235Z,0.50
2023-02-03T13:14:45.818Z,0.50
2023-02-03T13:17:19.786Z,0.50
2023-02-03T13:19:52.686Z,0.50
2023-02-03T13:22:24.925Z,0.50
2023-02-03T13:25:00.347Z,0.50
2023-02-03T13:27:42.687Z,0.40
2023-02-03T13:30:29.490Z,0.40
2023-02-03T13:33:32.083Z,0.30
2023-02-03T13:36:12.065Z,0.30
2023-02-03T13:39:06.690Z,0.30
2023-02-03T13:41:43.065Z,0.30
2023-02-03T13:44:14.058Z,0.20
2023-02-03T13:46:42.858Z,0.20
2023-02-03T13:49:20.208Z,0.20
2023-02-03T13:51:48.549Z,0.20
2023-02-03T13:54:24.308Z,0.20
2023-02-03T13:56:59.850Z,0.30
2023-02-03T13:59:41.807Z,0.20
2023-02-03T14:02:46.459Z,0.20
2023-02-03T14:05:44.669Z,0.30
2023-02-03T14:08:51.948Z,0.20
2023-02-03T14:11:43.709Z,0.20
2023-02-03T14:14:43.748Z,0.10
2023-02-03T14:18:03.713Z,0.10
2023-02-03T14:20:51.365Z,0.00
2023-02-03T14:23:37.967Z,0.00
2023-02-03T14:26:07.242Z,-0.10
2023-02-03T14:28:45.200Z,-0.20
2023-02-03T14:31:20.406Z,-0.20
2023-02-03T14:34:07.479Z,-0.30
2023-02-03T14:36:39.962Z,-0.40
2023-02-03T14:39:41.273Z,-0.50
2023-02-03T14:42:18.595Z,-0.50
2023-02-03T14:45:01.586Z,-0.50
2023-02-03T14:47:47.305Z,-0.60
2023-02-03T14:50:30.138Z,-0.60
2023-02-03T14:53:29.050Z,-0.70
2023-02-03T14:56:09.061Z,-0.80
2023-02-03T14:58:43.071Z,-0.80
2023-02-03T15:01:25.862Z,-0.90
2023-02-03T15:04:22.923Z,-0.90
2023-02-03T15:06:53.584Z,-1.00
2023-02-03T15:09:32.903Z,-1.10
2023-02-03T15:12:01.305Z,-1.10
2023-02-03T15:14:31.861Z,-1.10
2023-02-03T15:17:03.233Z,-1.20
2023-02-03T15:19:36.104Z,-1.20
2023-02-03T15:22:18.858Z,-1.20
2023-02-03T15:24:47.166Z,-1.30
2023-02-03T15:27:23.619Z,-1.30
2023-02-03T15:29:52.082Z,-1.40
2023-02-03T15:32:28.964Z,-1.40
2023-02-03T15:34:59.728Z,-1.30
2023-02-03T15:37:32.986Z,-1.40
2023-02-03T15:40:04.120Z,-1.40
2023-02-03T15:42:37.185Z,-1.40
2023-02-03T15:45:09.630Z,-1.40
2023-02-03T15:47:43.105Z,-1.40
2023-02-03T15:50:30.648Z,-1.40
2023-02-03T15:53:02.850Z,-1.50
2023-02-03T15:55:37.516Z,-1.50
2023-02-03T15:58:07.114Z,-1.50
2023-02-03T16:00:39.454Z,-1.50
2023-02-03T16:03:20.143Z,-1.50
2023-02-03T16:05:50.433Z,-1.60
2023-02-03T16:08:35.923Z,-1.60
2023-02-03T16:11:21.573Z,-1.50
2023-02-03T16:13:50.222Z,-1.40
2023-02-03T16:16:22.453Z,-1.40
2023-02-03T16:18:58.579Z,-1.50
2023-02-03T16:21:36.014Z,-1.50
2023-02-03T16:24:06.732Z,-1.50
2023-02-03T16:26:38.548Z,-1.50
2023-02-03T16:29:31.709Z,-1.50
2023-02-03T16:32:17.561Z,-1.60
2023-02-03T16:35:05.189Z,-1.60
2023-02-03T16:37:52.838Z,-1.70
2023-02-03T16:40:41.369Z,-1.70
2023-02-03T16:43:31.388Z,-1.70
2023-02-03T16:46:19.349Z,-1.80
2023-02-03T16:49:05.444Z,-1.80
2023-02-03T16:51:41.225Z,-1.80
2023-02-03T16:54:13.340Z,-1.80
2023-02-03T16:56:42.892Z,-1.90
2023-02-03T16:59:11.102Z,-1.90
2023-02-03T17:01:39.516Z,-2.00
2023-02-03T17:04:08.405Z,-2.00
2023-02-03T17:06:40.173Z,-2.00
2023-02-03T17:09:09.569Z,-2.10
2023-02-03T17:11:37.842Z,-2.10
2023-02-03T17:14:06.114Z,-2.10
2023-02-03T17:16:34.762Z,-2.10
2023-02-03T17:19:02.985Z,-2.10
2023-02-03T17:21:31.659Z,-2.00
2023-02-03T17:24:01.458Z,-1.90
2023-02-03T17:26:29.759Z,-1.90
2023-02-03T17:29:03.135Z,-1.90
2023-02-03T17:31:31.925Z,-1.80
2023-02-03T17:34:00.589Z,-1.60
2023-02-03T17:36:29.117Z,-1.70
2023-02-03T17:55:32.343Z,-1.30
2023-02-03T17:58:01.968Z,-1.30
2023-02-03T18:00:30.565Z,-1.30
2023-02-03T18:02:59.383Z,-1.20
2023-02-03T18:05:28.853Z,-1.20
2023-02-03T18:07:59.142Z,-1.20
2023-02-03T18:10:32.005Z,-1.20
2023-02-03T18:13:01.807Z,-1.20
2023-02-03T18:15:29.931Z,-1.20
2023-02-03T18:17:58.434Z,-1.20
2023-02-03T18:20:26.749Z,-1.20
2023-02-03T18:22:54.967Z,-1.20
2023-02-03T18:25:23.390Z,-1.20
2023-02-03T18:27:52.246Z,-1.20
2023-02-03T18:30:22.092Z,-1.20
2023-02-03T18:32:52.765Z,-1.20
2023-02-03T18:35:20.989Z,-1.30
2023-02-03T18:37:49.228Z,-1.20
2023-02-03T18:40:18.535Z,-1.20
2023-02-03T18:42:46.856Z,-1.20
2023-02-03T18:45:15.012Z,-1.20
2023-02-03T18:47:45.092Z,-1.20
2023-02-03T18:50:13.221Z,-1.20
2023-02-03T18:52:41.383Z,-1.20
2023-02-03T18:55:10.524Z,-1.20
2023-02-03T18:57:38.745Z,-1.20
2023-02-03T19:00:07.901Z,-1.20
2023-02-03T19:02:36.801Z,-1.20
2023-02-03T19:05:06.722Z,-1.30
2023-02-03T19:07:35.062Z,-1.30
2023-02-03T19:10:03.802Z,-1.30
2023-02-03T19:12:31.934Z,-1.20
2023-02-03T19:15:00.183Z,-1.20
2023-02-03T19:17:28.722Z,-1.20
2023-02-03T19:19:56.971Z,-1.20
2023-02-03T19:22:26.599Z,-1.20
2023-02-03T19:24:55.868Z,-1.20
2023-02-03T19:27:24.067Z,-1.20
2023-02-03T19:29:52.141Z,-1.20
2023-02-03T19:32:20.823Z,-1.20
2023-02-03T19:34:49.008Z,-1.20
2023-02-03T19:37:17.309Z,-1.20
2023-02-03T19:39:50.415Z,-1.20
2023-02-03T19:42:18.651Z,-1.20
2023-02-03T19:44:46.944Z,-1.20
2023-02-03T19:47:15.532Z,-1.20
2023-02-03T19:49:43.767Z,-1.20
2023-02-03T19:52:12.654Z,-1.20
2023-02-03T19:54:40.974Z,-1.20
2023-02-03T19:57:10.554Z,-1.20
2023-02-03T19:59:38.855Z,-1.20
2023-02-03T20:02:14.040Z,-1.20
2023-02-03T20:04:44.139Z,-1.20
2023-02-03T20:07:13.866Z,-1.20
2023-02-03T20:09:42.074Z,-1.20
2023-02-03T20:12:12.173Z,-1.20
2023-02-03T20:14:40.519Z,-1.20
2023-02-03T20:17:08.810Z,-1.20
2023-02-03T20:19:37.089Z,-1.30
2023-02-03T20:22:05.325Z,-1.30
2023-02-03T20:24:33.507Z,-1.30
2023-02-03T20:27:01.867Z,-1.40
2023-02-03T20:29:31.449Z,-1.40
2023-02-03T20:31:59.734Z,-1.50
2023-02-03T20:34:28.504Z,-1.50
2023-02-03T20:36:58.592Z,-1.50
2023-02-03T20:39:27.919Z,-1.50
2023-02-03T20:41:56.591Z,-1.50
2023-02-03T20:44:25.181Z,-1.50
2023-02-03T20:46:55.921Z,-1.60
2023-02-03T20:49:24.369Z,-1.60
2023-02-03T20:51:52.591Z,-1.60
2023-02-03T20:54:23.125Z,-1.70
2023-02-03T20:56:51.579Z,-1.70
2023-02-03T20:59:20.650Z,-1.80
2023-02-03T21:01:50.639Z,-1.80
2023-02-03T21:04:38.370Z,-1.90
2023-02-03T21:07:14.182Z,-1.90
2023-02-03T21:09:42.479Z,-1.90
2023-02-03T21:12:13.348Z,-2.00
2023-02-03T21:14:44.236Z,-2.00
2023-02-03T21:17:20.634Z,-2.10
2023-02-03T21:19:51.216Z,-2.10
2023-02-03T21:22:22.780Z,-2.10
2023-02-03T21:24:53.356Z,-2.10
2023-02-03T21:27:27.528Z,-2.10
2023-02-03T21:29:57.562Z,-2.10
2023-02-03T21:32:35.230Z,-2.20
2023-02-03T21:35:14.481Z,-2.20
2023-02-03T21:37:43.676Z,-2.10
2023-02-03T21:40:21.910Z,-2.20
2023-02-03T21:42:50.127Z,-2.20
2023-02-03T21:45:37.198Z,-2.20
2023-02-03T21:48:28.382Z,-2.10
2023-02-03T21:51:01.686Z,-2.10
2023-02-03T21:53:35.176Z,-2.10
2023-02-03T21:56:18.959Z,-2.10
2023-02-03T21:58:48.674Z,-2.10
2023-02-03T22:01:18.433Z,-2.00
2023-02-03T22:03:48.517Z,-2.00
2023-02-03T22:06:37.586Z,-2.00
2023-02-03T22:09:06.305Z,-2.00
2023-02-03T22:11:34.823Z,-2.00
2023-02-03T22:14:03.036Z,-2.00
2023-02-03T22:16:31.244Z,-2.00
2023-02-03T22:18:59.584Z,-2.00
2023-02-03T22:21:29.183Z,-2.10
2023-02-03T22:23:58.026Z,-2.10
2023-02-03T22:26:26.362Z,-2.20
2023-02-03T22:28:55.078Z,-2.20
2023-02-03T22:31:23.688Z,-2.20
2023-02-03T22:33:52.362Z,-2.30
2023-02-03T22:36:23.403Z,-2.30
2023-02-03T22:38:53.656Z,-2.30
2023-02-03T22:41:21.974Z,-2.30
2023-02-03T22:43:50.172Z,-2.20
2023-02-03T22:46:18.975Z,-2.30
2023-02-03T22:48:47.164Z,-2.30
2023-02-03T22:51:15.298Z,-2.30
2023-02-03T22:53:43.969Z,-2.30
2023-02-03T22:56:13.478Z,-2.20
2023-02-03T22:58:41.890Z,-2.20
2023-02-03T23:01:10.573Z,-2.20
2023-02-03T23:03:38.764Z,-2.20
2023-02-03T23:06:07.264Z,-2.20
2023-02-03T23:08:35.883Z,-2.30
2023-02-03T23:11:04.054Z,-2.30
2023-02-03T23:13:33.946Z,-2.30
2023-02-03T23:16:02.462Z,-2.30
2023-02-03T23:18:30.666Z,-2.30
2023-02-03T23:20:58.904Z,-2.40
2023-02-03T23:23:27.542Z,-2.40
2023-02-03T23:25:55.657Z,-2.30
2023-02-03T23:28:24.062Z,-2.30
2023-02-03T23:30:54.052Z,-2.40
2023-02-03T23:33:22.359Z,-2.30
2023-02-03T23:35:50.745Z,-2.30
2023-02-03T23:38:19.690Z,-2.30
2023-02-03T23:40:48.629Z,-2.40
2023-02-03T23:43:17.032Z,-2.30
2023-02-03T23:45:45.882Z,-2.30
2023-02-03T23:48:17.479Z,-2.30
2023-02-03T23:50:46.120Z,-2.30
2023-02-03T23:53:14.369Z,-2.30
2023-02-03T23:55:42.637Z,-2.30
2023-02-03T23:58:11.699Z,-2.30
